Time;durP1;ratioP1;P1;durP2;ratioP2;P2;SDS_P1;SDS_P2;PMS_P1;PMS_P2;Temp;Humidity;BMP_temperature;BMP_pressure;BME280_temperature;BME280_humidity;BME280_pressure;Samples;Min_cycle;Max_cycle;Signal;HPM_P1;HPM_P2
2023/02/01 00:01:30;;;;;;;27.40;3.95;;;5.70;99.90;;;;;;5108597;28;20054;-60
2023/02/01 00:03:57;;;;;;;22.20;4.22;;;5.70;99.90;;;;;;5107577;28;20048;-60
2023/02/01 00:06:25;;;;;;;28.52;4.40;;;5.70;99.90;;;;;;5098930;28;20052;-62
2023/02/01 00:08:55;;;;;;;14.50;3.47;;;5.70;99.90;;;;;;5085386;28;20048;-60
2023/02/01 00:11:22;;;;;;;20.00;3.92;;;5.70;99.90;;;;;;5074498;28;20092;-62
2023/02/01 00:13:50;;;;;;;15.15;4.28;;;5.60;99.90;;;;;;5089236;28;20392;-60
2023/02/01 00:16:17;;;;;;;15.48;4.43;;;5.60;99.90;;;;;;5106491;28;20040;-60
2023/02/01 00:18:45;;;;;;;24.33;4.47;;;5.60;99.90;;;;;;5093181;28;20074;-61
2023/02/01 00:21:13;;;;;;;22.25;4.78;;;5.50;99.90;;;;;;5082185;28;20050;-61
2023/02/01 00:23:41;;;;;;;16.17;3.75;;;5.50;99.90;;;;;;5111948;28;20409;-61
2023/02/01 00:26:16;;;;;;;15.77;4.50;;;5.50;99.90;;;;;;5088259;28;20443;-61
2023/02/01 00:28:43;;;;;;;23.48;3.72;;;5.50;99.90;;;;;;5111253;28;20086;-61
2023/02/01 00:31:10;;;;;;;20.05;5.90;;;5.50;99.90;;;;;;5079199;28;20074;-65
2023/02/01 00:33:38;;;;;;;20.23;4.00;;;5.50;99.90;;;;;;5091749;28;20056;-61
2023/02/01 00:36:06;;;;;;;26.33;4.30;;;5.50;99.90;;;;;;5078016;28;20093;-62
2023/02/01 00:38:36;;;;;;;15.60;3.78;;;5.50;99.90;;;;;;5098167;28;20453;-61
2023/02/01 00:41:10;;;;;;;21.63;4.28;;;5.40;99.90;;;;;;5072507;28;20048;-62
2023/02/01 00:43:38;;;;;;;24.30;3.50;;;5.50;99.90;;;;;;5074410;28;20109;-62
2023/02/01 00:46:05;;;;;;;22.17;3.53;;;5.40;99.90;;;;;;5100080;28;20051;-61
2023/02/01 00:48:33;;;;;;;21.75;3.40;;;5.40;99.90;;;;;;5111523;28;20047;-62
2023/02/01 00:51:00;;;;;;;18.38;4.20;;;5.40;99.90;;;;;;5107680;28;20052;-61
2023/02/01 00:53:28;;;;;;;33.15;5.10;;;5.40;99.90;;;;;;5077147;28;20080;-61
2023/02/01 00:55:56;;;;;;;19.38;3.85;;;5.40;99.90;;;;;;5090105;28;20040;-64
2023/02/01 00:58:26;;;;;;;20.88;3.47;;;5.40;99.90;;;;;;5098511;28;20423;-61
2023/02/01 01:01:26;;;;;;;20.60;3.60;;;5.40;99.90;;;;;;5088303;28;20468;-61
2023/02/01 01:03:57;;;;;;;23.85;5.47;;;5.30;99.90;;;;;;5023643;28;20544;-61
2023/02/01 01:06:29;;;;;;;22.80;5.78;;;5.30;99.90;;;;;;5097035;28;20478;-61
2023/02/01 01:08:57;;;;;;;24.08;4.28;;;5.40;99.90;;;;;;5106293;28;20082;-61
2023/02/01 01:11:27;;;;;;;19.48;4.00;;;5.30;99.90;;;;;;5110810;28;20047;-61
2023/02/01 01:13:54;;;;;;;23.90;3.63;;;5.30;99.90;;;;;;5099247;28;20071;-60
2023/02/01 01:16:22;;;;;;;19.20;5.07;;;5.30;99.90;;;;;;5078939;28;20043;-61
2023/02/01 01:18:49;;;;;;;18.17;3.97;;;5.30;99.90;;;;;;5101515;28;20052;-61
2023/02/01 01:21:17;;;;;;;14.73;3.28;;;5.30;99.90;;;;;;5075361;28;20526;-61
2023/02/01 01:23:45;;;;;;;12.07;3.00;;;5.30;99.90;;;;;;5102906;28;20060;-61
2023/02/01 01:26:20;;;;;;;16.00;3.10;;;5.30;99.90;;;;;;5100882;28;20130;-61
2023/02/01 01:28:48;;;;;;;27.00;3.25;;;5.30;99.90;;;;;;5109625;28;20048;-61
2023/02/01 01:31:16;;;;;;;26.92;3.88;;;5.30;99.90;;;;;;5109903;28;20484;-61
2023/02/01 01:33:43;;;;;;;30.23;3.50;;;5.40;99.90;;;;;;5102890;28;20056;-60
2023/02/01 01:36:13;;;;;;;24.50;4.13;;;5.30;99.90;;;;;;5091806;28;20058;-64
2023/02/01 01:38:41;;;;;;;16.77;4.22;;;5.40;99.90;;;;;;5069235;28;20044;-61
2023/02/01 01:41:10;;;;;;;19.77;3.58;;;5.40;99.90;;;;;;5073541;28;20055;-61
2023/02/01 01:43:59;;;;;;;28.70;4.55;;;5.40;99.90;;;;;;5080306;28;20089;-61
2023/02/01 01:46:28;;;;;;;23.42;4.63;;;5.40;99.90;;;;;;5094151;28;20043;-61
2023/02/01 01:49:10;;;;;;;21.25;4.03;;;5.40;99.90;;;;;;5081817;28;20084;-60
2023/02/01 01:51:52;;;;;;;19.05;2.92;;;5.40;99.90;;;;;;5093588;28;20097;-61
2023/02/01 01:54:20;;;;;;;16.90;3.53;;;5.40;99.90;;;;;;4752709;28;10001687;-61
2023/02/01 01:56:50;;;;;;;20.23;4.70;;;5.40;99.90;;;;;;5105890;28;20054;-61
2023/02/01 01:59:18;;;;;;;27.77;5.38;;;5.40;99.90;;;;;;5090289;28;20452;-61
2023/02/01 02:01:45;;;;;;;17.38;4.40;;;5.40;99.90;;;;;;5090733;28;20048;-61
2023/02/01 02:04:12;;;;;;;27.00;3.75;;;5.50;99.90;;;;;;5054785;28;20594;-61
2023/02/01 02:06:59;;;;;;;24.17;4.50;;;5.40;99.90;;;;;;5111267;28;20516;-61
2023/02/01 02:09:26;;;;;;;23.20;3.83;;;5.50;99.90;;;;;;5089938;28;20043;-61
2023/02/01 02:11:53;;;;;;;24.27;4.55;;;5.40;99.90;;;;;;5090120;28;20088;-62
2023/02/01 02:14:22;;;;;;;21.27;3.50;;;5.40;99.90;;;;;;5102385;28;20040;-61
2023/02/01 02:16:59;;;;;;;26.35;3.40;;;5.40;99.90;;;;;;5111136;28;20515;-61
2023/02/01 02:19:34;;;;;;;23.13;4.70;;;5.50;99.90;;;;;;5099154;28;20105;-61
2023/02/01 02:22:22;;;;;;;17.45;5.25;;;5.50;99.90;;;;;;5110481;28;20079;-61
2023/02/01 02:24:58;;;;;;;18.48;2.75;;;5.50;99.90;;;;;;5095430;28;20071;-61
2023/02/01 02:27:49;;;;;;;20.80;3.72;;;5.50;99.90;;;;;;5091974;28;20083;-61
2023/02/01 02:30:53;;;;;;;25.25;4.45;;;5.50;99.90;;;;;;5058426;28;20130;-61
2023/02/01 02:33:39;;;;;;;15.55;3.22;;;5.50;99.90;;;;;;5099047;28;20052;-61
2023/02/01 02:36:25;;;;;;;23.77;4.18;;;5.50;99.90;;;;;;5102267;28;20123;-61
2023/02/01 02:39:08;;;;;;;26.58;4.55;;;5.50;99.90;;;;;;5106438;28;20043;-61
2023/02/01 02:48:02;;;;;;;23.90;4.03;;;5.50;99.90;;;;;;5107559;28;20552;-61
2023/02/01 03:04:31;;;;;;;29.88;7.35;;;5.60;99.90;;;;;;5078263;28;20462;-61
2023/02/01 03:07:12;;;;;;;21.30;4.68;;;5.60;99.90;;;;;;5089656;28;20062;-61
2023/02/01 03:09:39;;;;;;;17.15;3.45;;;5.70;99.90;;;;;;5073461;28;20068;-61
2023/02/01 03:15:00;;;;;;;19.13;3.75;;;5.90;99.90;;;;;;5091279;28;20525;-61
2023/02/01 03:17:32;;;;;;;18.92;4.38;;;5.90;99.90;;;;;;5073256;28;20138;-61
2023/02/01 03:20:00;;;;;;;27.73;3.75;;;5.90;99.90;;;;;;5089982;28;20134;-61
2023/02/01 03:22:27;;;;;;;37.40;5.43;;;5.90;99.90;;;;;;5099646;28;20048;-61
2023/02/01 03:24:55;;;;;;;21.45;4.60;;;5.90;99.90;;;;;;5040644;28;20134;-61
2023/02/01 03:27:35;;;;;;;22.98;4.05;;;5.90;99.90;;;;;;5087810;28;20052;-61
2023/02/01 03:30:17;;;;;;;22.77;5.30;;;5.90;99.90;;;;;;5108501;28;20048;-61
2023/02/01 03:33:01;;;;;;;15.60;3.38;;;5.90;99.90;;;;;;5088778;28;20126;-61
2023/02/01 03:35:48;;;;;;;24.90;5.37;;;5.80;99.90;;;;;;5087330;28;20048;-62
2023/02/01 03:38:38;;;;;;;22.35;3.53;;;5.90;99.90;;;;;;5046450;28;20281;-62
2023/02/01 03:41:18;;;;;;;15.85;2.70;;;5.80;99.90;;;;;;5074106;28;20048;-62
2023/02/01 03:44:02;;;;;;;21.90;4.53;;;5.90;99.90;;;;;;5062848;28;20044;-61
2023/02/01 03:46:35;;;;;;;29.13;6.63;;;5.90;99.90;;;;;;5085178;28;20045;-62
2023/02/01 03:49:05;;;;;;;23.75;4.63;;;5.90;99.90;;;;;;5072414;28;20121;-62
2023/02/01 03:51:33;;;;;;;14.63;3.13;;;5.90;99.90;;;;;;5066506;28;20083;-62
2023/02/01 03:54:02;;;;;;;24.67;4.43;;;5.80;99.90;;;;;;5075237;28;20090;-62
2023/02/01 03:56:29;;;;;;;13.68;3.42;;;5.80;99.90;;;;;;5042722;28;20096;-62
2023/02/01 03:58:58;;;;;;;24.73;3.63;;;5.90;99.90;;;;;;5071845;28;20135;-61
2023/02/01 04:01:29;;;;;;;18.55;3.42;;;5.80;99.90;;;;;;5058166;28;20383;-62
2023/02/01 04:03:58;;;;;;;15.73;2.95;;;5.80;99.90;;;;;;5079702;28;20079;-62
2023/02/01 04:06:25;;;;;;;19.20;4.85;;;5.80;99.90;;;;;;5091065;28;20445;-62
2023/02/01 04:08:52;;;;;;;24.83;3.63;;;5.80;99.90;;;;;;5092621;28;20044;-62
2023/02/01 04:11:19;;;;;;;18.38;2.95;;;5.80;99.90;;;;;;5093527;28;20052;-62
2023/02/01 04:13:46;;;;;;;23.23;3.60;;;5.80;99.90;;;;;;5087035;28;20048;-62
2023/02/01 04:16:13;;;;;;;13.65;3.13;;;5.70;99.90;;;;;;5093099;28;20452;-62
2023/02/01 04:18:41;;;;;;;22.77;3.40;;;5.70;99.90;;;;;;5079837;28;20048;-62
2023/02/01 04:21:08;;;;;;;21.83;4.43;;;5.70;99.90;;;;;;5092477;28;20059;-62
2023/02/01 04:23:36;;;;;;;16.85;3.42;;;5.70;99.90;;;;;;5090733;28;20047;-62
2023/02/01 04:26:03;;;;;;;31.67;3.45;;;5.70;99.90;;;;;;5088265;28;20050;-62
2023/02/01 04:28:30;;;;;;;19.08;3.25;;;5.70;99.90;;;;;;5091859;28;20601;-61
2023/02/01 04:30:57;;;;;;;37.13;6.50;;;5.70;99.90;;;;;;5057706;28;20078;-62
2023/02/01 04:33:24;;;;;;;20.63;3.92;;;5.80;99.90;;;;;;5079435;28;20457;-62
2023/02/01 04:35:52;;;;;;;27.38;5.13;;;5.80;99.90;;;;;;5107990;28;20426;-62
2023/02/01 04:38:19;;;;;;;24.95;4.82;;;5.70;99.90;;;;;;5108216;28;20050;-60
2023/02/01 04:40:49;;;;;;;16.42;2.72;;;5.80;99.90;;;;;;5094454;28;20407;-61
2023/02/01 04:43:17;;;;;;;16.90;3.95;;;5.80;99.90;;;;;;5110442;28;20048;-61
2023/02/01 04:45:48;;;;;;;15.02;3.40;;;5.80;99.90;;;;;;5101656;28;20130;-61
2023/02/01 04:48:16;;;;;;;18.67;4.05;;;5.70;99.90;;;;;;5079053;28;20050;-61
2023/02/01 04:50:47;;;;;;;17.15;2.65;;;5.70;99.90;;;;;;5085350;28;20163;-61
2023/02/01 04:53:15;;;;;;;15.55;3.05;;;5.70;99.90;;;;;;5092775;28;20056;-61
2023/02/01 04:55:42;;;;;;;25.25;3.45;;;5.70;99.90;;;;;;5103640;28;20415;-61
2023/02/01 04:58:09;;;;;;;11.02;2.47;;;5.70;99.90;;;;;;5093373;28;20040;-61
2023/02/01 05:00:37;;;;;;;18.35;3.47;;;5.80;99.90;;;;;;5085658;28;20496;-61
2023/02/01 05:03:04;;;;;;;19.25;3.13;;;5.80;99.90;;;;;;5092064;28;20081;-61
2023/02/01 05:05:31;;;;;;;21.38;4.63;;;5.80;99.90;;;;;;5107081;28;20051;-61
2023/02/01 05:07:59;;;;;;;11.93;2.30;;;5.80;99.90;;;;;;5073887;28;20084;-60
2023/02/01 05:10:26;;;;;;;31.73;5.05;;;5.80;99.90;;;;;;5105735;28;20567;-61
2023/02/01 05:15:38;;;;;;;17.50;2.90;;;5.80;99.90;;;;;;5099757;28;20048;-60
2023/02/01 05:18:05;;;;;;;17.95;2.78;;;5.80;99.90;;;;;;5112061;28;20047;-61
2023/02/01 05:20:32;;;;;;;13.98;2.47;;;5.80;99.90;;;;;;5100243;28;20144;-61
2023/02/01 05:23:00;;;;;;;16.92;2.60;;;5.80;99.90;;;;;;5111552;28;20052;-61
2023/02/01 05:25:27;;;;;;;26.35;5.47;;;5.90;99.90;;;;;;5072051;28;20047;-61
2023/02/01 05:27:54;;;;;;;23.67;4.45;;;5.80;99.90;;;;;;5109490;28;20472;-60
2023/02/01 05:30:21;;;;;;;15.52;3.35;;;5.90;99.90;;;;;;5104309;28;20048;-60
2023/02/01 05:32:52;;;;;;;17.88;3.55;;;5.90;99.90;;;;;;5089162;28;20047;-62
2023/02/01 05:35:19;;;;;;;19.60;3.35;;;6.00;99.90;;;;;;5104988;28;20079;-61
2023/02/01 05:37:46;;;;;;;23.70;5.45;;;5.80;99.90;;;;;;5104991;28;20085;-61
2023/02/01 05:40:13;;;;;;;26.25;6.65;;;5.80;99.90;;;;;;5107256;28;20056;-61
2023/02/01 05:42:40;;;;;;;14.43;2.95;;;5.90;99.90;;;;;;5077411;28;20134;-61
2023/02/01 05:45:07;;;;;;;17.55;3.78;;;5.90;99.90;;;;;;5111129;28;20082;-61
2023/02/01 05:47:34;;;;;;;16.00;3.47;;;5.90;99.90;;;;;;5101037;28;20054;-61
2023/02/01 05:50:01;;;;;;;18.23;4.40;;;5.90;99.90;;;;;;5110516;28;20044;-61
2023/02/01 05:52:28;;;;;;;19.08;3.00;;;5.90;99.90;;;;;;5106386;28;20051;-60
2023/02/01 05:54:56;;;;;;;24.40;5.03;;;5.90;99.90;;;;;;5111529;28;20504;-61
2023/02/01 05:57:23;;;;;;;15.95;2.63;;;5.90;99.90;;;;;;5099303;28;20443;-61
2023/02/01 05:59:50;;;;;;;25.65;4.50;;;6.00;99.90;;;;;;5093890;28;20043;-61
2023/02/01 06:02:17;;;;;;;21.35;3.17;;;5.90;99.90;;;;;;5108100;28;20047;-60
2023/02/01 06:04:44;;;;;;;21.08;3.03;;;5.90;99.90;;;;;;5091372;28;20044;-60
2023/02/01 06:07:11;;;;;;;15.52;2.85;;;5.90;99.90;;;;;;5092587;28;20479;-60
2023/02/01 06:09:38;;;;;;;24.13;3.10;;;5.80;99.90;;;;;;5111484;28;20152;-60
2023/02/01 06:12:06;;;;;;;30.05;5.20;;;5.90;99.90;;;;;;5100543;28;20078;-61
2023/02/01 06:14:34;;;;;;;22.52;3.65;;;5.90;99.90;;;;;;5109794;28;20051;-61
2023/02/01 06:17:00;;;;;;;19.70;2.92;;;5.90;99.90;;;;;;5102442;28;20135;-61
2023/02/01 06:19:28;;;;;;;22.38;3.33;;;5.90;99.90;;;;;;5089843;28;20050;-61
2023/02/01 06:21:55;;;;;;;13.43;3.05;;;5.90;99.90;;;;;;5104678;28;20052;-61
2023/02/01 06:24:22;;;;;;;18.08;3.15;;;5.90;99.90;;;;;;5088985;28;20683;-61
2023/02/01 06:26:49;;;;;;;25.88;3.00;;;5.90;99.90;;;;;;5107058;28;20384;-61
2023/02/01 06:29:17;;;;;;;29.27;5.65;;;6.00;99.90;;;;;;5084794;28;20039;-61
2023/02/01 06:31:52;;;;;;;17.95;2.38;;;6.00;99.90;;;;;;5091127;28;20421;-61
2023/02/01 06:34:19;;;;;;;;;;;6.00;99.90;;;;;;5101270;28;20063;-61
2023/02/01 06:36:47;;;;;;;23.85;3.72;;;6.00;99.90;;;;;;5107146;28;20406;-61
2023/02/01 06:39:15;;;;;;;24.88;3.28;;;6.00;99.90;;;;;;5099450;28;20043;-61
2023/02/01 06:41:46;;;;;;;16.23;2.88;;;6.00;99.90;;;;;;5109655;28;20048;-61
2023/02/01 06:44:14;;;;;;;23.33;2.95;;;5.90;99.90;;;;;;5091106;28;20071;-61
2023/02/01 06:46:41;;;;;;;17.10;3.25;;;6.00;99.90;;;;;;5106883;28;20452;-61
2023/02/01 06:49:08;;;;;;;13.38;3.05;;;6.00;99.90;;;;;;5102349;28;20036;-61
2023/02/01 06:51:35;;;;;;;15.43;3.38;;;6.00;99.90;;;;;;5073436;28;20514;-61
2023/02/01 06:54:02;;;;;;;19.70;3.60;;;6.10;99.90;;;;;;5106270;28;20043;-61
2023/02/01 06:56:31;;;;;;;24.30;5.35;;;6.10;99.90;;;;;;5092785;28;20039;-61
2023/02/01 06:58:58;;;;;;;23.88;3.53;;;6.00;99.90;;;;;;5097169;28;20044;-61
2023/02/01 07:01:25;;;;;;;25.48;4.72;;;6.00;99.90;;;;;;5092213;28;20122;-61
2023/02/01 07:03:52;;;;;;;15.15;2.92;;;6.00;99.90;;;;;;5104987;28;20055;-61
2023/02/01 07:06:19;;;;;;;15.85;2.95;;;6.00;99.90;;;;;;5110230;28;20051;-61
2023/02/01 07:08:45;;;;;;;28.52;5.05;;;6.10;99.90;;;;;;5074964;28;20074;-61
2023/02/01 07:11:13;;;;;;;26.40;3.22;;;6.10;99.90;;;;;;5075602;28;20151;-61
2023/02/01 07:13:40;;;;;;;34.63;4.72;;;6.20;99.90;;;;;;5061565;28;20443;-62
2023/02/01 07:16:13;;;;;;;14.88;2.75;;;6.20;99.90;;;;;;5091796;28;20418;-61
2023/02/01 07:18:40;;;;;;;20.65;3.15;;;6.30;99.90;;;;;;5055492;28;20043;-61
2023/02/01 07:21:07;;;;;;;20.15;3.92;;;6.30;99.90;;;;;;5101040;28;20051;-61
2023/02/01 07:23:34;;;;;;;14.57;2.50;;;6.20;99.90;;;;;;5104527;28;20040;-61
2023/02/01 07:26:03;;;;;;;29.75;4.93;;;6.30;99.90;;;;;;5108542;28;20105;-61
2023/02/01 07:28:31;;;;;;;19.05;3.17;;;6.20;99.90;;;;;;5107901;28;20228;-61
2023/02/01 07:31:07;;;;;;;25.15;4.85;;;6.20;99.90;;;;;;5074314;28;20040;-61
2023/02/01 07:33:34;;;;;;;20.70;3.25;;;6.30;99.90;;;;;;5059032;28;20071;-61
2023/02/01 07:36:03;;;;;;;20.00;4.20;;;6.30;99.90;;;;;;5103450;28;20074;-62
2023/02/01 07:38:30;;;;;;;19.52;3.05;;;6.30;99.90;;;;;;5074878;28;20147;-63
2023/02/01 07:41:01;;;;;;;22.35;3.15;;;6.30;99.90;;;;;;5096198;28;20037;-62
2023/02/01 07:43:28;;;;;;;21.20;5.75;;;6.30;99.90;;;;;;5079723;28;20039;-62
2023/02/01 07:45:55;;;;;;;15.30;3.47;;;6.30;99.90;;;;;;5074050;28;20051;-62
2023/02/01 07:48:23;;;;;;;14.88;3.30;;;6.30;99.90;;;;;;5087307;28;20579;-61
2023/02/01 07:51:18;;;;;;;31.95;3.90;;;6.30;99.90;;;;;;5091836;28;20121;-62
2023/02/01 07:53:45;;;;;;;20.75;3.55;;;6.20;99.90;;;;;;5092626;28;20051;-62
2023/02/01 07:56:13;;;;;;;22.30;4.82;;;6.20;99.90;;;;;;5106031;28;20482;-62
2023/02/01 07:58:40;;;;;;;27.48;6.35;;;6.30;99.90;;;;;;5106642;28;20070;-62
2023/02/01 08:01:24;;;;;;;35.30;7.53;;;6.20;99.90;;;;;;5072817;28;20130;-62
2023/02/01 08:03:55;;;;;;;25.15;5.80;;;6.20;99.90;;;;;;5095973;28;20050;-61
2023/02/01 08:06:22;;;;;;;38.38;7.38;;;6.30;99.90;;;;;;5106985;28;20119;-61
2023/02/01 08:08:49;;;;;;;24.75;3.67;;;6.30;99.90;;;;;;5075498;28;20058;-62
2023/02/01 08:11:16;;;;;;;32.25;4.20;;;6.20;99.90;;;;;;5079972;28;20556;-61
2023/02/01 08:13:43;;;;;;;31.20;9.73;;;6.20;99.90;;;;;;5092945;28;20146;-61
2023/02/01 08:16:11;;;;;;;35.90;12.27;;;6.20;99.90;;;;;;5083972;28;20552;-61
2023/02/01 08:18:39;;;;;;;29.20;9.57;;;6.20;99.90;;;;;;5091546;28;20047;-61
2023/02/01 08:21:07;;;;;;;20.67;4.75;;;6.20;99.90;;;;;;5108184;28;20062;-61
2023/02/01 08:23:34;;;;;;;25.52;3.65;;;6.20;99.90;;;;;;5111884;28;20126;-61
2023/02/01 08:26:08;;;;;;;31.08;4.45;;;6.30;99.90;;;;;;5088396;28;20586;-62
2023/02/01 08:28:35;;;;;;;14.80;3.25;;;6.30;99.90;;;;;;5105934;28;20058;-61
2023/02/01 08:31:14;;;;;;;30.20;8.70;;;6.30;99.90;;;;;;5109913;28;20588;-61
2023/02/01 08:33:42;;;;;;;38.05;9.52;;;6.30;99.90;;;;;;5096678;28;20048;-61
2023/02/01 08:36:09;;;;;;;31.70;7.22;;;6.40;99.90;;;;;;5077268;28;20449;-61
2023/02/01 08:38:37;;;;;;;22.73;5.47;;;6.40;99.90;;;;;;5081377;28;20048;-62
2023/02/01 08:41:08;;;;;;;16.02;3.67;;;6.40;99.90;;;;;;5078739;28;20046;-62
2023/02/01 08:43:34;;;;;;;24.55;4.28;;;6.50;99.90;;;;;;5101404;28;20050;-62
2023/02/01 08:46:02;;;;;;;20.90;4.13;;;6.50;99.90;;;;;;5109097;28;20048;-63
2023/02/01 08:48:29;;;;;;;28.42;5.53;;;6.50;99.90;;;;;;5072566;28;20462;-61
2023/02/01 08:50:56;;;;;;;20.77;4.32;;;6.50;99.90;;;;;;5092227;28;20040;-61
2023/02/01 08:53:23;;;;;;;23.15;3.95;;;6.50;99.90;;;;;;5100811;28;20057;-61
2023/02/01 08:55:49;;;;;;;17.02;3.08;;;6.50;99.90;;;;;;5112101;28;20130;-61
2023/02/01 08:58:16;;;;;;;23.08;3.17;;;6.50;99.90;;;;;;5107604;28;20134;-61
2023/02/01 09:00:44;;;;;;;22.20;4.88;;;6.50;99.90;;;;;;5111823;28;20333;-61
2023/02/01 09:03:11;;;;;;;16.98;3.88;;;6.60;99.90;;;;;;5087801;28;20513;-61
2023/02/01 09:05:38;;;;;;;19.50;3.60;;;6.60;99.90;;;;;;5073702;28;20041;-61
2023/02/01 09:08:15;;;;;;;25.90;3.42;;;6.60;99.90;;;;;;5096212;28;20055;-61
2023/02/01 09:10:42;;;;;;;15.27;3.22;;;6.60;99.90;;;;;;5112028;28;20046;-61
2023/02/01 09:13:09;;;;;;;14.50;3.28;;;6.70;99.90;;;;;;5089117;28;20470;-61
2023/02/01 09:15:36;;;;;;;18.35;3.80;;;6.80;99.90;;;;;;5093082;28;20048;-61
2023/02/01 09:18:03;;;;;;;21.55;3.65;;;7.10;99.90;;;;;;5081629;28;20561;-61
2023/02/01 09:20:30;;;;;;;15.98;3.10;;;7.00;99.90;;;;;;5095254;28;20076;-62
2023/02/01 09:22:57;;;;;;;28.65;5.00;;;7.10;99.90;;;;;;5104949;28;20047;-62
2023/02/01 09:25:24;;;;;;;14.00;2.53;;;7.10;99.90;;;;;;5097827;28;20102;-61
2023/02/01 09:27:51;;;;;;;26.60;5.30;;;7.20;99.90;;;;;;5097145;28;20116;-62
2023/02/01 09:30:17;;;;;;;17.85;2.95;;;7.20;99.90;;;;;;5099670;28;20047;-62
2023/02/01 09:32:44;;;;;;;16.83;3.38;;;7.20;99.90;;;;;;5092675;28;20471;-62
2023/02/01 09:35:11;;;;;;;22.02;3.08;;;7.30;99.90;;;;;;5093205;28;20054;-62
2023/02/01 09:37:37;;;;;;;23.38;3.35;;;7.30;99.90;;;;;;5108499;28;20086;-62
2023/02/01 09:40:05;;;;;;;17.00;2.97;;;7.30;99.90;;;;;;5103687;28;20044;-62
2023/02/01 09:43:10;;;;;;;19.27;3.25;;;7.40;99.90;;;;;;5074694;28;20052;-62
2023/02/01 09:46:08;;;;;;;15.88;3.05;;;7.50;99.90;;;;;;5090374;28;20134;-62
2023/02/01 09:48:37;;;;;;;23.58;5.90;;;7.40;99.90;;;;;;5088767;28;20040;-62
2023/02/01 09:51:05;;;;;;;22.45;5.05;;;7.40;99.90;;;;;;5085368;28;20044;-62
2023/02/01 09:53:36;;;;;;;19.75;3.00;;;7.40;99.90;;;;;;5088386;28;20040;-62
2023/02/01 09:56:06;;;;;;;21.02;3.38;;;7.40;99.90;;;;;;5111867;28;20087;-62
2023/02/01 09:58:37;;;;;;;23.40;3.58;;;7.50;99.90;;;;;;5090945;28;20048;-62
2023/02/01 10:01:08;;;;;;;17.80;2.90;;;7.40;99.90;;;;;;5101175;28;20108;-62
2023/02/01 10:03:35;;;;;;;17.58;4.00;;;7.40;99.90;;;;;;5092343;28;20071;-62
2023/02/01 10:06:17;;;;;;;29.65;5.30;;;7.50;99.90;;;;;;5077051;28;20089;-62
2023/02/01 10:09:06;;;;;;;26.08;5.47;;;7.60;99.90;;;;;;5091606;28;20118;-62
2023/02/01 10:11:48;;;;;;;18.58;3.83;;;7.60;99.90;;;;;;5101706;28;20039;-61
2023/02/01 10:14:35;;;;;;;15.73;4.18;;;7.70;99.90;;;;;;5091132;28;20123;-61
2023/02/01 10:17:20;;;;;;;20.40;3.58;;;7.70;99.90;;;;;;5069638;28;20135;-60
2023/02/01 10:19:47;;;;;;;17.52;3.20;;;7.80;99.90;;;;;;5088431;28;20046;-61
2023/02/01 10:22:40;;;;;;;24.38;4.55;;;7.80;99.90;;;;;;5096786;28;20158;-61
2023/02/01 10:25:32;;;;;;;22.33;3.53;;;7.90;99.90;;;;;;5051126;28;20128;-61
2023/02/01 10:28:00;;;;;;;21.92;3.65;;;7.90;99.90;;;;;;5073904;28;20050;-61
2023/02/01 10:30:33;;;;;;;28.30;5.05;;;8.00;99.90;;;;;;5067494;28;20096;-61
2023/02/01 10:33:32;;;;;;;22.05;4.70;;;8.00;99.90;;;;;;5089637;28;20043;-61
2023/02/01 10:36:07;;;;;;;26.77;5.05;;;8.10;99.90;;;;;;5082315;28;20051;-61
2023/02/01 10:38:34;;;;;;;23.25;3.72;;;8.10;99.90;;;;;;5091929;28;20062;-63
2023/02/01 10:41:19;;;;;;;20.88;4.13;;;8.10;99.90;;;;;;5108320;28;20475;-62
2023/02/01 10:43:49;;;;;;;21.60;3.53;;;8.20;99.90;;;;;;5104197;28;20055;-61
2023/02/01 10:46:17;;;;;;;14.18;3.38;;;8.20;99.90;;;;;;5074720;28;20066;-61
2023/02/01 10:48:43;;;;;;;17.80;4.15;;;8.20;99.90;;;;;;5071351;28;20040;-62
2023/02/01 10:51:14;;;;;;;22.05;3.35;;;8.30;99.90;;;;;;5078898;28;20203;-61
2023/02/01 10:53:57;;;;;;;17.42;2.83;;;8.30;99.90;;;;;;5071601;28;20666;-61
2023/02/01 10:56:25;;;;;;;20.35;2.80;;;8.30;99.90;;;;;;5059863;28;20553;-60
2023/02/01 10:58:59;;;;;;;22.85;3.17;;;8.40;99.90;;;;;;5105682;28;20145;-61
2023/02/01 11:01:28;;;;;;;;;;;8.40;99.90;;;;;;5091473;28;20039;-60
2023/02/01 11:03:58;;;;;;;14.48;2.88;;;8.40;99.90;;;;;;5075426;28;20095;-60
2023/02/01 11:06:38;;;;;;;26.92;3.10;;;8.50;99.90;;;;;;5077800;28;20048;-62
2023/02/01 11:09:07;;;;;;;12.45;3.03;;;8.50;99.90;;;;;;5109191;28;20108;-61
2023/02/01 11:11:46;;;;;;;22.63;3.58;;;8.40;99.90;;;;;;5105003;28;20046;-61
2023/02/01 11:14:17;;;;;;;18.10;2.75;;;8.40;99.90;;;;;;5093051;28;20086;-61
2023/02/01 11:16:49;;;;;;;20.73;4.97;;;8.40;99.90;;;;;;5093318;28;20044;-61
2023/02/01 11:19:17;;;;;;;20.65;3.80;;;8.40;99.90;;;;;;5103543;28;20071;-61
2023/02/01 11:21:46;;;;;;;24.38;5.40;;;8.50;99.90;;;;;;5104152;28;20127;-61
2023/02/01 11:24:28;;;;;;;28.95;3.88;;;8.50;99.90;;;;;;5101992;28;20043;-60
2023/02/01 11:27:00;;;;;;;29.60;4.78;;;8.60;99.90;;;;;;5088819;28;20255;-61
2023/02/01 11:29:29;;;;;;;20.95;3.30;;;8.60;99.90;;;;;;5061037;28;20135;-61
2023/02/01 11:31:57;;;;;;;24.98;4.53;;;8.70;99.90;;;;;;5060948;28;20115;-61
2023/02/01 11:34:27;;;;;;;21.17;4.28;;;8.90;99.90;;;;;;5066267;28;20051;-62
2023/02/01 11:36:55;;;;;;;29.67;3.72;;;8.90;99.90;;;;;;5090292;28;20134;-62
2023/02/01 11:39:26;;;;;;;28.98;3.78;;;8.90;99.90;;;;;;5082077;28;20475;-61
2023/02/01 11:42:15;;;;;;;28.55;5.18;;;9.00;99.90;;;;;;5058599;28;20134;-63
2023/02/01 11:44:43;;;;;;;21.10;3.00;;;9.10;99.90;;;;;;5101098;28;20123;-63
2023/02/01 11:47:28;;;;;;;25.83;4.05;;;9.10;99.90;;;;;;5090229;28;20036;-61
2023/02/01 11:50:02;;;;;;;24.60;4.00;;;9.10;99.90;;;;;;5078614;28;20048;-61
2023/02/01 11:52:38;;;;;;;26.42;5.47;;;9.10;99.90;;;;;;5085071;28;20049;-61
2023/02/01 11:55:11;;;;;;;21.58;3.90;;;9.10;99.90;;;;;;5100325;28;20085;-61
2023/02/01 11:58:12;;;;;;;15.02;3.60;;;9.10;99.90;;;;;;5105956;28;20401;-61
2023/02/01 12:00:44;;;;;;;15.00;3.13;;;9.10;99.90;;;;;;5081327;28;20109;-60
2023/02/01 12:03:33;;;;;;;14.23;3.40;;;9.10;99.90;;;;;;5107069;28;20048;-62
2023/02/01 12:06:08;;;;;;;17.25;3.67;;;9.20;99.90;;;;;;5092690;28;20048;-60
2023/02/01 12:09:05;;;;;;;21.80;2.85;;;9.30;99.90;;;;;;5065592;28;20048;-62
2023/02/01 12:11:57;;;;;;;17.70;3.05;;;9.30;99.90;;;;;;5058870;28;20040;-61
2023/02/01 12:14:45;;;;;;;22.17;5.03;;;9.40;99.90;;;;;;5088556;28;20395;-61
2023/02/01 12:17:36;;;;;;;22.10;3.80;;;9.50;99.90;;;;;;5092320;28;20480;-61
2023/02/01 12:20:13;;;;;;;19.48;2.90;;;9.50;99.90;;;;;;5082690;28;20066;-61
2023/02/01 12:22:59;;;;;;;16.83;3.35;;;9.60;99.90;;;;;;5094057;28;20057;-60
2023/02/01 12:25:38;;;;;;;36.92;6.10;;;9.60;99.90;;;;;;5088781;28;20175;-61
2023/02/01 12:28:17;;;;;;;16.10;3.38;;;9.60;99.90;;;;;;5093124;28;20138;-61
2023/02/01 12:30:46;;;;;;;25.38;3.55;;;9.70;99.90;;;;;;5103446;28;20503;-61
2023/02/01 12:33:55;;;;;;;29.23;3.90;;;9.80;99.90;;;;;;5107243;28;20134;-62
2023/02/01 12:36:26;;;;;;;18.60;3.25;;;9.80;99.90;;;;;;5097345;28;20043;-61
2023/02/01 12:39:14;;;;;;;23.50;3.05;;;9.70;99.90;;;;;;5107906;28;20039;-61
2023/02/01 12:41:48;;;;;;;28.40;3.83;;;9.70;99.90;;;;;;5103983;28;20077;-61
2023/02/01 12:44:28;;;;;;;22.02;3.63;;;9.70;99.90;;;;;;5078638;28;20046;-61
2023/02/01 12:47:14;;;;;;;26.38;4.25;;;9.80;99.90;;;;;;5087783;28;20119;-61
2023/02/01 12:49:48;;;;;;;18.48;2.60;;;9.80;99.90;;;;;;5092604;28;20126;-61
2023/02/01 12:52:20;;;;;;;15.43;2.97;;;9.90;99.90;;;;;;5111868;28;20063;-61
2023/02/01 12:54:55;;;;;;;11.55;3.40;;;10.00;99.90;;;;;;5074581;28;20061;-62
2023/02/01 12:57:28;;;;;;;16.58;3.20;;;10.10;99.90;;;;;;5080822;28;20128;-61
2023/02/01 13:00:01;;;;;;;20.05;3.03;;;10.10;99.90;;;;;;5098698;28;20066;-63
2023/02/01 13:02:33;;;;;;;17.20;3.22;;;10.20;99.90;;;;;;5081592;28;20127;-62
2023/02/01 13:05:23;;;;;;;29.13;4.00;;;10.30;99.90;;;;;;5081161;28;20076;-62
2023/02/01 13:08:03;;;;;;;16.88;3.10;;;10.30;99.90;;;;;;5081959;28;20137;-61
2023/02/01 13:10:30;;;;;;;24.65;3.63;;;10.30;99.90;;;;;;5063377;28;20043;-62
2023/02/01 13:13:02;;;;;;;20.55;4.60;;;10.40;99.90;;;;;;5104616;28;20079;-62
2023/02/01 13:15:33;;;;;;;24.10;4.28;;;10.40;99.90;;;;;;5090032;28;20047;-62
2023/02/01 13:18:02;;;;;;;12.68;3.30;;;10.40;99.90;;;;;;5086702;28;20126;-62
2023/02/01 13:20:36;;;;;;;14.63;2.95;;;10.50;99.90;;;;;;5090591;28;20050;-61
2023/02/01 13:23:23;;;;;;;16.33;2.85;;;10.50;99.90;;;;;;5069067;28;20051;-62
2023/02/01 13:25:51;;;;;;;15.82;3.20;;;10.50;99.90;;;;;;5105374;28;20123;-61
2023/02/01 13:28:27;;;;;;;20.67;3.30;;;10.60;99.90;;;;;;5068732;28;20126;-61
2023/02/01 13:31:27;;;;;;;26.67;3.80;;;10.70;99.90;;;;;;5075123;28;20066;-61
2023/02/01 13:34:03;;;;;;;18.42;3.47;;;10.60;99.90;;;;;;5095080;28;20071;-60
2023/02/01 13:36:44;;;;;;;20.75;3.58;;;10.70;99.90;;;;;;5100913;28;20146;-61